Time;durP1;ratioP1;P1;durP2;ratioP2;P2;SDS_P1;SDS_P2;PMS_P1;PMS_P2;Temp;Humidity;BMP_temperature;BMP_pressure;BME280_temperature;BME280_humidity;BME280_pressure;Samples;Min_cycle;Max_cycle;Signal;HPM_P1;HPM_P2
2022/05/18 00:00:52;;;;;;;9.88;5.25;;;13.00;99.90;;;;;;5090155;28;20046;-65
2022/05/18 00:03:25;;;;;;;10.15;5.25;;;13.00;99.90;;;;;;5091300;28;20094;-64
2022/05/18 00:05:53;;;;;;;8.32;5.20;;;13.00;99.90;;;;;;5091394;28;20051;-64
2022/05/18 00:08:19;;;;;;;7.32;4.90;;;13.10;99.90;;;;;;5090965;28;20043;-64
2022/05/18 00:10:48;;;;;;;9.50;4.78;;;13.10;99.90;;;;;;5090211;28;20096;-64
2022/05/18 00:13:15;;;;;;;6.70;4.28;;;13.10;99.90;;;;;;5091038;28;20048;-64
2022/05/18 00:15:44;;;;;;;10.15;4.57;;;13.10;99.90;;;;;;5091138;28;20052;-64
2022/05/18 00:18:11;;;;;;;6.97;5.32;;;13.10;99.90;;;;;;5093533;28;20065;-64
2022/05/18 00:20:37;;;;;;;7.50;4.68;;;13.20;99.90;;;;;;5093987;28;20101;-64
2022/05/18 00:23:05;;;;;;;10.15;4.95;;;13.10;99.90;;;;;;5095010;28;20044;-64
2022/05/18 00:25:38;;;;;;;10.63;4.93;;;13.20;99.90;;;;;;5095160;28;20090;-64
2022/05/18 00:28:06;;;;;;;7.88;4.80;;;13.20;99.90;;;;;;5094439;28;20415;-64
2022/05/18 00:30:34;;;;;;;7.50;4.70;;;13.20;99.90;;;;;;5094279;28;20055;-64
2022/05/18 00:33:04;;;;;;;9.20;4.82;;;13.20;99.90;;;;;;5095131;28;20044;-65
2022/05/18 00:35:34;;;;;;;7.70;5.32;;;13.20;99.90;;;;;;5094519;28;20040;-64
2022/05/18 00:38:01;;;;;;;7.05;4.53;;;13.20;99.90;;;;;;5086802;28;20036;-64
2022/05/18 00:40:28;;;;;;;;;;;13.20;99.90;;;;;;5094852;28;20484;-64
2022/05/18 00:42:55;;;;;;;6.30;4.35;;;13.20;99.90;;;;;;5094771;28;19920;-64
2022/05/18 00:45:22;;;;;;;8.07;5.00;;;13.20;99.90;;;;;;5088356;28;20139;-64
2022/05/18 00:47:50;;;;;;;5.75;4.57;;;13.40;99.90;;;;;;5093704;28;20075;-65
2022/05/18 00:50:39;;;;;;;6.13;4.68;;;13.20;99.90;;;;;;5094184;28;20044;-64
2022/05/18 00:53:12;;;;;;;11.90;5.68;;;13.20;99.90;;;;;;5094153;28;20048;-64
2022/05/18 00:55:44;;;;;;;14.63;5.60;;;13.10;99.90;;;;;;5094292;28;20044;-64
2022/05/18 00:58:38;;;;;;;9.32;4.50;;;13.10;99.90;;;;;;5094522;28;20044;-64
2022/05/18 01:01:07;;;;;;;8.18;4.65;;;13.20;99.90;;;;;;5092283;28;20320;-64
2022/05/18 01:03:43;;;;;;;5.78;4.63;;;13.20;99.90;;;;;;5090704;28;20110;-64
2022/05/18 01:06:19;;;;;;;9.30;5.38;;;13.10;99.90;;;;;;5094230;28;20089;-64
2022/05/18 01:09:05;;;;;;;12.45;5.75;;;12.90;99.90;;;;;;5094476;28;20044;-64
2022/05/18 01:11:34;;;;;;;9.38;5.75;;;12.60;99.90;;;;;;5086375;28;20040;-64
2022/05/18 01:14:03;;;;;;;9.02;5.97;;;12.50;99.90;;;;;;5068381;28;20411;-64
2022/05/18 01:16:30;;;;;;;7.70;5.40;;;12.40;99.90;;;;;;5094266;28;20059;-64
2022/05/18 01:18:58;;;;;;;9.18;6.15;;;12.30;99.90;;;;;;5093929;28;20047;-65
2022/05/18 01:21:34;;;;;;;8.20;4.63;;;12.40;99.90;;;;;;5090849;28;20100;-64
2022/05/18 01:24:20;;;;;;;8.15;5.25;;;12.40;99.90;;;;;;5056034;28;20404;-64
2022/05/18 01:26:48;;;;;;;7.53;4.80;;;13.30;99.90;;;;;;5073927;28;20051;-64
2022/05/18 01:29:19;;;;;;;9.05;5.10;;;12.60;99.90;;;;;;5088189;28;20451;-64
2022/05/18 01:31:51;;;;;;;8.73;5.13;;;12.60;99.90;;;;;;5093607;28;20040;-64
2022/05/18 01:34:21;;;;;;;7.18;5.22;;;12.60;99.90;;;;;;5093902;28;20063;-64
2022/05/18 01:36:49;;;;;;;7.70;4.70;;;12.70;99.90;;;;;;5086652;28;20495;-64
2022/05/18 01:39:34;;;;;;;10.15;4.88;;;12.70;99.90;;;;;;5093624;28;20044;-64
2022/05/18 01:42:10;;;;;;;8.43;5.15;;;12.70;99.90;;;;;;5093298;28;20055;-64
2022/05/18 01:44:39;;;;;;;10.02;5.15;;;12.60;99.90;;;;;;5093255;28;20044;-64
2022/05/18 01:47:07;;;;;;;9.82;5.32;;;12.60;99.90;;;;;;5086353;28;20069;-64
2022/05/18 01:49:36;;;;;;;11.30;5.82;;;12.60;99.90;;;;;;5107930;22;20172;-64
2022/05/18 01:52:04;;;;;;;8.77;5.38;;;12.60;99.90;;;;;;5064922;28;20485;-64
2022/05/18 01:54:35;;;;;;;;;;;12.60;99.90;;;;;;5065073;28;20040;-64
2022/05/18 01:57:02;;;;;;;8.50;5.35;;;12.60;99.90;;;;;;5053115;28;19964;-64
2022/05/18 01:59:29;;;;;;;8.10;5.07;;;12.50;99.90;;;;;;5056048;28;20397;-64
2022/05/18 02:01:57;;;;;;;9.75;5.53;;;12.50;99.90;;;;;;5072773;28;20124;-64
2022/05/18 02:04:24;;;;;;;7.80;5.35;;;12.50;99.90;;;;;;5073299;28;20481;-64
2022/05/18 02:06:51;;;;;;;7.03;5.03;;;12.50;99.90;;;;;;5072573;28;20485;-64
2022/05/18 02:09:20;;;;;;;7.95;5.60;;;12.50;99.90;;;;;;5073099;28;20048;-64
2022/05/18 02:11:49;;;;;;;13.23;5.28;;;12.50;99.90;;;;;;5072747;28;20049;-64
2022/05/18 02:14:17;;;;;;;7.82;5.20;;;12.50;99.90;;;;;;5073146;28;20102;-64
2022/05/18 02:16:43;;;;;;;;;;;12.50;99.90;;;;;;5072701;28;20570;-64
2022/05/18 02:19:10;;;;;;;8.10;5.18;;;12.50;99.90;;;;;;5073272;28;19921;-64
2022/05/18 02:21:37;;;;;;;11.68;5.78;;;12.40;99.90;;;;;;5072395;28;20048;-64
2022/05/18 02:24:04;;;;;;;9.38;5.65;;;12.20;99.90;;;;;;5072459;28;20040;-64
2022/05/18 02:26:31;;;;;;;10.90;5.35;;;12.10;99.90;;;;;;5072715;28;20575;-64
2022/05/18 02:28:58;;;;;;;10.88;5.40;;;12.10;99.90;;;;;;5072721;28;20044;-64
2022/05/18 02:31:25;;;;;;;8.02;5.53;;;12.10;99.90;;;;;;5071901;28;20060;-64
2022/05/18 02:33:52;;;;;;;8.45;5.28;;;12.10;99.90;;;;;;5072402;28;20049;-64
2022/05/18 02:36:19;;;;;;;8.10;5.75;;;12.10;99.90;;;;;;5072645;28;20048;-64
2022/05/18 02:38:46;;;;;;;6.93;5.07;;;12.10;99.90;;;;;;5072667;28;20044;-64
2022/05/18 02:41:12;;;;;;;9.50;5.15;;;12.10;99.90;;;;;;5071155;28;20041;-64
2022/05/18 02:43:40;;;;;;;19.48;6.82;;;12.10;99.90;;;;;;5072074;28;20041;-64
2022/05/18 02:46:08;;;;;;;;;;;12.10;99.90;;;;;;5055367;28;20119;-64
2022/05/18 02:48:36;;;;;;;6.18;5.57;;;12.00;99.90;;;;;;5072537;28;19970;-64
2022/05/18 02:51:05;;;;;;;8.13;5.45;;;11.90;99.90;;;;;;5071126;28;20079;-64
2022/05/18 02:53:31;;;;;;;8.13;5.40;;;11.80;99.90;;;;;;5072288;28;20077;-64
2022/05/18 02:56:07;;;;;;;6.75;5.20;;;11.90;99.90;;;;;;5072309;28;20044;-64
2022/05/18 02:58:42;;;;;;;9.68;5.75;;;11.90;99.90;;;;;;5071718;28;20059;-64
2022/05/18 03:01:12;;;;;;;14.25;6.47;;;11.90;99.90;;;;;;5071866;28;20039;-64
2022/05/18 03:03:40;;;;;;;9.50;6.68;;;11.90;99.90;;;;;;5072223;28;20049;-64
2022/05/18 03:06:09;;;;;;;8.73;5.82;;;11.90;99.90;;;;;;5071722;28;20098;-64
2022/05/18 03:08:38;;;;;;;9.93;5.88;;;11.70;99.90;;;;;;5050804;28;20060;-64
2022/05/18 03:11:05;;;;;;;10.30;6.18;;;11.70;99.90;;;;;;5071752;28;20048;-64
2022/05/18 03:13:32;;;;;;;9.70;6.32;;;11.70;99.90;;;;;;5072010;28;20049;-64
2022/05/18 03:16:01;;;;;;;11.98;6.85;;;11.70;99.90;;;;;;5071455;28;20051;-64
2022/05/18 03:18:28;;;;;;;10.43;6.93;;;11.80;99.90;;;;;;5053670;28;20053;-64
2022/05/18 03:23:41;;;;;;;8.98;6.40;;;11.90;99.90;;;;;;5071965;28;20036;-64
2022/05/18 03:26:17;;;;;;;7.88;5.32;;;11.80;99.90;;;;;;5067553;28;20067;-64
2022/05/18 03:28:46;;;;;;;9.30;6.32;;;11.90;99.90;;;;;;5071588;28;20048;-64
2022/05/18 03:31:14;;;;;;;10.18;5.45;;;11.90;99.90;;;;;;5071458;28;20036;-64
2022/05/18 03:33:42;;;;;;;8.65;5.20;;;12.00;99.90;;;;;;5068307;28;20501;-64
2022/05/18 03:36:12;;;;;;;8.77;5.25;;;12.00;99.90;;;;;;5071662;28;20520;-64
2022/05/18 03:38:44;;;;;;;9.60;5.72;;;12.00;99.90;;;;;;5071554;28;20131;-64
2022/05/18 03:41:11;;;;;;;8.85;5.85;;;11.90;99.90;;;;;;5071223;28;20058;-64
2022/05/18 03:43:38;;;;;;;;;;;11.90;99.90;;;;;;5071443;28;20044;-64
2022/05/18 03:46:06;;;;;;;7.55;5.50;;;11.80;99.90;;;;;;5071406;28;19920;-64
2022/05/18 03:48:33;;;;;;;10.35;6.53;;;11.60;99.90;;;;;;5071705;28;20037;-64
2022/05/18 03:51:01;;;;;;;;;;;11.50;99.90;;;;;;5071274;28;20040;-63
2022/05/18 03:53:29;;;;;;;12.88;6.75;;;11.50;99.90;;;;;;5070022;28;19974;-64
2022/05/18 03:55:56;;;;;;;;;;;11.40;99.90;;;;;;5071753;28;20630;-63
2022/05/18 03:58:23;;;;;;;13.20;6.80;;;11.40;99.90;;;;;;5071523;28;19920;-63
2022/05/18 04:00:51;;;;;;;13.85;7.22;;;11.50;99.90;;;;;;5070475;28;20489;-64
2022/05/18 04:03:20;;;;;;;11.23;7.50;;;11.50;99.90;;;;;;5071048;28;20041;-64
2022/05/18 04:05:52;;;;;;;12.68;7.22;;;11.60;99.90;;;;;;5071069;28;20070;-64
2022/05/18 04:08:19;;;;;;;17.35;6.40;;;11.70;99.90;;;;;;5071439;28;20094;-64
2022/05/18 04:10:46;;;;;;;12.75;7.45;;;11.70;99.90;;;;;;5070243;28;20047;-64
2022/05/18 04:13:14;;;;;;;;;;;11.80;99.90;;;;;;5071535;28;20504;-64
2022/05/18 04:15:42;;;;;;;14.63;7.47;;;11.80;99.90;;;;;;5071051;28;19920;-64
2022/05/18 04:18:09;;;;;;;10.25;6.38;;;11.90;99.90;;;;;;5071224;28;20298;-64
2022/05/18 04:20:36;;;;;;;11.77;6.43;;;11.90;99.90;;;;;;5086113;22;20059;-63
2022/05/18 04:23:05;;;;;;;8.48;5.93;;;12.00;99.90;;;;;;5091210;28;20036;-63
2022/05/18 04:25:31;;;;;;;;;;;12.00;99.90;;;;;;5091538;28;20036;-63
2022/05/18 04:27:58;;;;;;;9.52;6.30;;;12.00;99.90;;;;;;5087784;28;19924;-63
2022/05/18 04:30:27;;;;;;;9.55;6.20;;;11.70;99.90;;;;;;5076641;28;20102;-63
2022/05/18 04:32:54;;;;;;;10.77;5.75;;;12.10;99.90;;;;;;5071010;28;20059;-63
2022/05/18 04:35:25;;;;;;;11.05;6.80;;;12.20;99.90;;;;;;5070948;28;20044;-63
2022/05/18 04:37:52;;;;;;;10.52;7.35;;;12.20;99.90;;;;;;5064070;28;20040;-63
2022/05/18 04:40:19;;;;;;;12.80;7.40;;;12.30;99.90;;;;;;5070262;28;20435;-63
2022/05/18 04:42:47;;;;;;;10.98;7.60;;;12.30;99.90;;;;;;5071128;28;20041;-63
2022/05/18 04:45:15;;;;;;;;;;;12.30;99.90;;;;;;5071262;28;20040;-64
2022/05/18 04:47:42;;;;;;;16.15;7.07;;;12.40;99.90;;;;;;5064031;28;20459;-63
2022/05/18 04:50:09;;;;;;;12.45;7.63;;;12.40;99.90;;;;;;5070339;28;20059;-64
2022/05/18 04:52:36;;;;;;;12.90;8.60;;;12.50;99.90;;;;;;5070674;28;20045;-63
2022/05/18 04:55:04;;;;;;;15.15;8.45;;;12.50;99.90;;;;;;5074981;28;20086;-63
2022/05/18 04:57:31;;;;;;;16.38;9.90;;;12.50;99.90;;;;;;5075423;28;20098;-63
2022/05/18 04:59:57;;;;;;;14.73;9.63;;;12.60;99.90;;;;;;5077761;28;20081;-63
2022/05/18 05:02:24;;;;;;;14.23;9.40;;;12.60;99.90;;;;;;5069895;28;20094;-63
2022/05/18 05:04:51;;;;;;;13.02;9.32;;;12.70;99.90;;;;;;5065141;28;20139;-63
2022/05/18 05:07:18;;;;;;;18.70;8.68;;;12.70;99.90;;;;;;5080676;28;20101;-63
2022/05/18 05:09:44;;;;;;;12.48;8.65;;;12.70;99.90;;;;;;5060613;28;20431;-63
2022/05/18 05:12:11;;;;;;;18.23;9.68;;;12.80;99.90;;;;;;5072798;28;20048;-63
2022/05/18 05:14:39;;;;;;;15.02;8.85;;;12.80;99.90;;;;;;5085108;28;20537;-64
2022/05/18 05:17:06;;;;;;;12.95;8.32;;;12.90;99.90;;;;;;5074082;28;20098;-62
2022/05/18 05:19:36;;;;;;;13.27;8.93;;;13.00;99.90;;;;;;5073836;28;20083;-63
2022/05/18 05:22:04;;;;;;;11.23;8.27;;;13.00;99.90;;;;;;5075926;28;20040;-63
2022/05/18 05:24:31;;;;;;;11.55;8.65;;;13.00;99.90;;;;;;5067636;28;20102;-63
2022/05/18 05:26:58;;;;;;;;;;;13.00;99.90;;;;;;5078270;28;20040;-63
2022/05/18 05:29:25;;;;;;;18.27;9.23;;;13.10;99.90;;;;;;5080081;28;19924;-63
2022/05/18 05:31:51;;;;;;;11.90;7.78;;;13.10;99.90;;;;;;5078207;28;20056;-63
2022/05/18 05:34:19;;;;;;;13.10;8.07;;;13.20;99.90;;;;;;5082741;28;20091;-63
2022/05/18 05:36:46;;;;;;;17.92;8.90;;;13.30;99.90;;;;;;5053505;28;20061;-63
2022/05/18 05:39:13;;;;;;;12.07;8.07;;;13.40;99.90;;;;;;5080025;28;20045;-63
2022/05/18 05:41:42;;;;;;;9.40;7.28;;;13.50;99.90;;;;;;5078841;28;20131;-63
2022/05/18 05:44:10;;;;;;;11.23;7.40;;;13.50;99.90;;;;;;5073553;28;20044;-63
2022/05/18 05:46:37;;;;;;;10.93;7.50;;;13.60;99.90;;;;;;5083996;28;20067;-63
2022/05/18 05:49:04;;;;;;;15.23;7.43;;;13.70;99.90;;;;;;5077861;28;20574;-63
2022/05/18 05:51:31;;;;;;;14.27;8.18;;;13.70;99.90;;;;;;5072991;28;20786;-63
2022/05/18 05:53:58;;;;;;;12.02;7.80;;;13.80;99.90;;;;;;5073644;28;20404;-63
2022/05/18 05:56:25;;;;;;;14.05;8.10;;;13.80;99.90;;;;;;5078811;28;20458;-64
2022/05/18 05:58:51;;;;;;;10.80;7.50;;;13.90;99.90;;;;;;5078439;28;20195;-63
2022/05/18 06:01:19;;;;;;;11.57;7.35;;;14.00;99.90;;;;;;5072784;28;20032;-63
2022/05/18 06:03:46;;;;;;;;;;;14.10;99.90;;;;;;5073417;28;20044;-63
2022/05/18 06:06:13;;;;;;;10.90;7.20;;;14.30;99.90;;;;;;5066984;28;19973;-63
2022/05/18 06:08:41;;;;;;;12.35;7.28;;;14.40;99.90;;;;;;5068218;28;20451;-64
2022/05/18 06:11:09;;;;;;;11.65;7.43;;;14.50;99.90;;;;;;5070456;28;20040;-63
2022/05/18 06:13:36;;;;;;;10.68;6.78;;;14.50;99.90;;;;;;5069269;28;20561;-63
2022/05/18 06:16:04;;;;;;;12.25;7.35;;;14.50;99.90;;;;;;5069629;28;20048;-63
2022/05/18 06:18:31;;;;;;;11.60;7.00;;;14.50;99.90;;;;;;5070392;28;20048;-63
2022/05/18 06:20:59;;;;;;;12.07;7.18;;;14.60;99.90;;;;;;5072842;28;20377;-63
2022/05/18 06:23:26;;;;;;;11.85;6.40;;;14.70;99.90;;;;;;5070010;28;20051;-63
2022/05/18 06:25:59;;;;;;;9.65;6.38;;;14.80;99.90;;;;;;5072414;28;20047;-63
2022/05/18 06:28:26;;;;;;;13.52;6.47;;;14.90;99.90;;;;;;5072705;28;20060;-63
2022/05/18 06:30:52;;;;;;;11.93;7.07;;;15.10;99.90;;;;;;5066108;28;20056;-63
2022/05/18 06:33:19;;;;;;;8.38;6.03;;;15.20;99.90;;;;;;5072243;28;20409;-63
2022/05/18 06:35:47;;;;;;;9.80;6.32;;;15.30;99.90;;;;;;5072393;28;20558;-63
2022/05/18 06:38:15;;;;;;;9.23;6.72;;;15.50;99.90;;;;;;5068056;28;20055;-63
2022/05/18 06:43:28;;;;;;;9.68;6.57;;;15.80;99.90;;;;;;5072437;28;20049;-63
2022/05/18 06:45:54;;;;;;;;;;;16.00;99.90;;;;;;5071591;28;20554;-63
2022/05/18 06:48:21;;;;;;;11.13;6.57;;;16.20;99.90;;;;;;5071780;28;19920;-63
2022/05/18 06:51:08;;;;;;;11.38;6.75;;;16.30;99.90;;;;;;5051589;28;20493;-63
2022/05/18 06:53:35;;;;;;;8.20;5.90;;;16.40;99.90;;;;;;5051963;28;20040;-63
2022/05/18 06:56:02;;;;;;;9.95;6.20;;;16.50;99.90;;;;;;5064226;28;20055;-63
2022/05/18 06:58:31;;;;;;;12.43;6.25;;;16.60;99.90;;;;;;5071861;28;20053;-63
2022/05/18 07:01:01;;;;;;;10.77;5.90;;;16.70;99.90;;;;;;5071401;28;20040;-63
2022/05/18 07:03:29;;;;;;;8.02;5.72;;;16.80;99.90;;;;;;5066928;28;20041;-63
2022/05/18 07:05:56;;;;;;;11.05;6.10;;;16.90;99.90;;;;;;5045338;28;20464;-63
2022/05/18 07:08:23;;;;;;;9.77;6.35;;;17.00;99.90;;;;;;5071933;28;20071;-63
2022/05/18 07:10:50;;;;;;;10.10;6.15;;;17.10;99.90;;;;;;5071539;28;20044;-63
2022/05/18 07:13:17;;;;;;;9.05;5.85;;;17.20;99.90;;;;;;5065172;28;20561;-63
2022/05/18 07:15:45;;;;;;;5.85;5.10;;;17.40;99.90;;;;;;5071562;28;20071;-63
2022/05/18 07:18:13;;;;;;;7.88;5.53;;;17.50;99.90;;;;;;5071451;28;20084;-63
2022/05/18 07:20:41;;;;;;;8.35;6.13;;;17.60;99.90;;;;;;5053273;28;20053;-63
2022/05/18 07:23:08;;;;;;;11.80;5.85;;;17.70;99.90;;;;;;5070599;28;20044;-63
2022/05/18 07:25:35;;;;;;;;;;;17.80;99.90;;;;;;5071986;28;20040;-63
2022/05/18 07:28:03;;;;;;;12.93;5.65;;;18.00;99.90;;;;;;5071336;28;19928;-64
2022/05/18 07:30:49;;;;;;;9.05;5.78;;;18.10;99.90;;;;;;5066473;28;20079;-63
2022/05/18 07:33:16;;;;;;;9.85;7.43;;;18.20;99.90;;;;;;5070933;28;20090;-63
2022/05/18 07:35:44;;;;;;;7.03;5.13;;;18.20;99.90;;;;;;5071243;28;20504;-64
2022/05/18 07:38:11;;;;;;;8.13;5.13;;;18.30;99.90;;;;;;5071456;28;20102;-64
2022/05/18 07:40:55;;;;;;;7.88;5.25;;;18.40;99.90;;;;;;5065104;28;20109;-64
2022/05/18 07:43:22;;;;;;;9.07;5.45;;;18.60;99.90;;;;;;5071294;28;20055;-63
2022/05/18 07:45:51;;;;;;;7.68;5.45;;;18.80;99.90;;;;;;5071179;28;20041;-64
2022/05/18 07:48:19;;;;;;;12.93;6.30;;;19.00;99.90;;;;;;5071451;28;20064;-64
2022/05/18 07:51:20;;;;;;;24.55;9.85;;;19.20;99.90;;;;;;5088533;22;20040;-64
2022/05/18 07:53:47;;;;;;;6.70;5.13;;;19.30;99.90;;;;;;5086336;28;20515;-66
2022/05/18 07:56:14;;;;;;;6.50;5.15;;;19.50;99.90;;;;;;5090987;28;20473;-66
2022/05/18 07:58:41;;;;;;;9.15;5.43;;;19.70;99.90;;;;;;5091273;28;20549;-66
2022/05/18 08:01:08;;;;;;;12.63;5.82;;;19.80;99.90;;;;;;5078044;28;20037;-66
2022/05/18 08:03:35;;;;;;;;;;;19.90;99.90;;;;;;5071546;28;20047;-66
2022/05/18 08:06:02;;;;;;;11.68;6.40;;;19.80;99.90;;;;;;5070764;28;20296;-66
2022/05/18 08:08:29;;;;;;;7.07;5.15;;;19.90;99.90;;;;;;5066844;28;20452;-66
2022/05/18 08:16:29;;;;;;;9.90;5.30;;;20.00;99.90;;;;;;5063680;28;20049;-66
2022/05/18 08:18:57;;;;;;;16.85;7.65;;;19.90;99.90;;;;;;5070458;28;20044;-66
2022/05/18 08:21:24;;;;;;;7.55;5.43;;;20.00;99.90;;;;;;5068080;28;20170;-66
2022/05/18 08:23:51;;;;;;;7.28;5.30;;;20.00;99.90;;;;;;5070715;28;20062;-66
2022/05/18 08:26:24;;;;;;;15.68;7.05;;;20.20;99.90;;;;;;5069890;28;20045;-66
2022/05/18 08:28:51;;;;;;;18.38;7.68;;;20.30;99.90;;;;;;5070529;28;20508;-66
2022/05/18 08:31:17;;;;;;;11.38;6.70;;;20.40;99.90;;;;;;5070457;28;20447;-66
2022/05/18 08:33:44;;;;;;;;;;;20.50;99.90;;;;;;5066862;28;20530;-66
2022/05/18 08:36:11;;;;;;;7.80;5.20;;;20.60;99.90;;;;;;5073389;28;19931;-67
2022/05/18 08:38:38;;;;;;;9.35;5.90;;;20.70;99.90;;;;;;5072452;28;20043;-66
2022/05/18 08:41:17;;;;;;;7.65;4.68;;;20.90;99.90;;;;;;5070225;28;20082;-67
2022/05/18 08:43:47;;;;;;;7.85;4.78;;;21.00;99.90;;;;;;5072871;28;20048;-66
2022/05/18 08:46:21;;;;;;;6.78;4.72;;;21.30;99.90;;;;;;5074658;28;20044;-67
2022/05/18 08:48:57;;;;;;;7.45;4.72;;;21.40;99.90;;;;;;5074913;28;20070;-67
2022/05/18 08:51:38;;;;;;;5.97;4.93;;;21.50;99.90;;;;;;5069604;28;20123;-67
2022/05/18 08:54:33;;;;;;;10.48;4.82;;;21.60;99.90;;;;;;5067133;28;20040;-67
2022/05/18 08:57:02;;;;;;;7.05;4.70;;;21.60;99.90;;;;;;5074665;28;20110;-67
2022/05/18 08:59:38;;;;;;;8.38;4.53;;;21.70;99.90;;;;;;5072394;28;20111;-67
2022/05/18 09:02:22;;;;;;;6.55;4.80;;;21.70;99.90;;;;;;5066800;28;20037;-67
2022/05/18 09:04:55;;;;;;;9.00;4.90;;;21.70;99.90;;;;;;5074536;28;20044;-67
2022/05/18 09:07:53;;;;;;;7.28;4.63;;;21.80;99.90;;;;;;5069273;28;20037;-67
2022/05/18 09:10:41;;;;;;;6.35;4.35;;;21.90;99.90;;;;;;5073874;28;20049;-67
2022/05/18 09:13:08;;;;;;;14.52;5.55;;;22.00;99.90;;;;;;5074470;28;20052;-67
2022/05/18 09:15:58;;;;;;;12.60;5.43;;;22.10;99.90;;;;;;5071297;28;20396;-68
2022/05/18 09:18:47;;;;;;;7.25;4.55;;;22.10;99.90;;;;;;5060623;28;20135;-67
2022/05/18 09:21:23;;;;;;;7.32;4.63;;;22.30;99.90;;;;;;5073680;28;20036;-67
2022/05/18 09:24:00;;;;;;;6.28;3.88;;;22.40;99.90;;;;;;5068095;28;20037;-67
2022/05/18 09:27:01;;;;;;;10.82;4.00;;;22.50;99.90;;;;;;5073992;28;20041;-67
2022/05/18 09:29:49;;;;;;;9.52;5.00;;;22.60;99.90;;;;;;5074126;28;20048;-67
2022/05/18 09:32:28;;;;;;;;;;;22.70;99.90;;;;;;5074238;28;20051;-66
2022/05/18 09:35:33;;;;;;;5.88;4.35;;;22.80;99.90;;;;;;5077335;28;19972;-66
2022/05/18 09:38:15;;;;;;;6.60;4.32;;;23.00;99.90;;;;;;5079889;28;20119;-66
2022/05/18 09:40:45;;;;;;;5.97;4.57;;;23.20;99.90;;;;;;5075569;28;20044;-66
2022/05/18 09:43:26;;;;;;;7.25;4.20;;;23.30;99.90;;;;;;5080859;28;20117;-66
2022/05/18 09:45:55;;;;;;;6.75;4.10;;;23.30;99.90;;;;;;5083122;28;20064;-66
2022/05/18 09:48:34;;;;;;;6.70;3.45;;;23.50;99.90;;;;;;5081691;28;20071;-67
2022/05/18 09:51:02;;;;;;;5.82;3.22;;;23.50;99.90;;;;;;5073148;28;20049;-66
2022/05/18 09:53:29;;;;;;;6.22;3.20;;;23.70;99.90;;;;;;5080171;28;20040;-67
2022/05/18 09:55:56;;;;;;;5.55;3.08;;;23.70;99.70;;;;;;5073091;28;20709;-66
2022/05/18 09:58:40;;;;;;;6.45;3.20;;;23.60;99.90;;;;;;5079839;28;20043;-67
2022/05/18 10:09:42;;;;;;;5.75;2.63;;;23.90;99.60;;;;;;5078246;28;20044;-67
2022/05/18 10:12:26;;;;;;;6.60;2.72;;;24.00;99.90;;;;;;5080778;28;20063;-66
2022/05/18 10:15:04;;;;;;;3.83;2.83;;;24.00;98.40;;;;;;5082050;28;20036;-66
2022/05/18 10:17:36;;;;;;;6.97;2.47;;;24.20;98.10;;;;;;5079780;28;20062;-67
2022/05/18 10:20:20;;;;;;;4.28;2.50;;;24.30;96.80;;;;;;5064111;28;20033;-67
2022/05/18 10:22:49;;;;;;;3.05;2.10;;;24.10;96.30;;;;;;5068793;28;20033;-67
2022/05/18 10:25:34;;;;;;;2.92;1.92;;;24.00;95.20;;;;;;5072075;28;20048;-66
2022/05/18 10:28:40;;;;;;;4.32;2.42;;;24.00;95.30;;;;;;5070165;28;20047;-67
2022/05/18 10:31:22;;;;;;;5.15;2.53;;;24.10;97.30;;;;;;5016618;28;20055;-66
2022/05/18 10:33:49;;;;;;;3.78;1.80;;;24.20;94.90;;;;;;5072096;28;20725;-66
2022/05/18 10:36:24;;;;;;;4.82;2.30;;;24.30;93.20;;;;;;5071890;28;20443;-66
2022/05/18 10:38:55;;;;;;;4.25;1.70;;;24.50;93.70;;;;;;5070181;28;20648;-66
2022/05/18 10:41:27;;;;;;;6.18;1.90;;;24.60;92.30;;;;;;5071252;28;20039;-67
2022/05/18 10:43:53;;;;;;;3.38;1.90;;;24.80;88.30;;;;;;5071851;28;20040;-67
2022/05/18 10:46:31;;;;;;;3.25;2.00;;;24.60;90.50;;;;;;5070979;28;20098;-67
2022/05/18 10:49:02;;;;;;;5.03;1.88;;;24.60;89.90;;;;;;5070793;28;20040;-67
2022/05/18 10:51:49;;;;;;;4.75;2.00;;;24.60;90.90;;;;;;5068640;28;20055;-67
2022/05/18 10:54:26;;;;;;;7.80;2.53;;;24.90;91.10;;;;;;5070970;28;20040;-68
2022/05/18 10:57:14;;;;;;;5.00;2.57;;;25.00;93.40;;;;;;5070958;28;20045;-67
2022/05/18 10:59:50;;;;;;;;;;;25.10;94.00;;;;;;5071334;28;20067;-67
2022/05/18 11:02:36;;;;;;;7.03;2.67;;;25.40;96.80;;;;;;5070907;28;19921;-67
2022/05/18 11:05:12;;;;;;;7.57;2.97;;;25.70;92.00;;;;;;5068372;28;20071;-67
2022/05/18 11:07:38;;;;;;;5.35;3.28;;;25.60;93.50;;;;;;5071250;28;20499;-67
2022/05/18 11:10:06;;;;;;;9.50;3.72;;;24.90;93.50;;;;;;5070581;28;20048;-66
2022/05/18 11:12:49;;;;;;;6.28;3.63;;;24.10;95.60;;;;;;5069772;28;20036;-67
2022/05/18 11:15:38;;;;;;;7.22;4.00;;;23.80;96.70;;;;;;5070595;28;20048;-66
2022/05/18 11:18:33;;;;;;;9.20;3.85;;;23.30;98.70;;;;;;5075096;28;20108;-67
2022/05/18 11:21:32;;;;;;;4.28;3.83;;;23.00;98.90;;;;;;5074836;28;20044;-67
2022/05/18 11:24:08;;;;;;;8.27;3.15;;;23.30;99.40;;;;;;5046791;28;20496;-67
2022/05/18 11:26:47;;;;;;;7.57;3.50;;;23.70;98.20;;;;;;5064187;28;20067;-67
2022/05/18 11:29:34;;;;;;;5.28;3.42;;;24.00;97.30;;;;;;5054722;28;20041;-68
2022/05/18 11:32:09;;;;;;;5.25;3.80;;;24.20;96.60;;;;;;5067187;28;20032;-67
2022/05/18 11:34:43;;;;;;;9.88;3.50;;;24.10;98.50;;;;;;5068960;28;20484;-67
2022/05/18 11:37:52;;;;;;;6.55;3.65;;;23.80;97.70;;;;;;5067293;28;20064;-67
2022/05/18 11:40:41;;;;;;;4.38;3.13;;;23.50;99.10;;;;;;5031374;28;20381;-68
2022/05/18 11:43:28;;;;;;;3.78;3.28;;;23.50;98.30;;;;;;5066098;28;20094;-68
2022/05/18 11:45:58;;;;;;;6.28;3.00;;;23.90;98.60;;;;;;5066612;28;20040;-68
2022/05/18 11:48:40;;;;;;;5.35;3.20;;;24.00;96.50;;;;;;5070481;28;20120;-69
2022/05/18 11:51:29;;;;;;;3.35;2.90;;;23.50;97.20;;;;;;5065472;28;20048;-68
2022/05/18 11:54:22;;;;;;;4.85;3.53;;;23.10;98.80;;;;;;5071598;28;20048;-69
2022/05/18 11:57:07;;;;;;;4.35;3.25;;;23.10;99.90;;;;;;5068365;28;20041;-68
2022/05/18 12:00:03;;;;;;;6.47;3.78;;;23.30;99.90;;;;;;5066223;28;20048;-69
2022/05/18 12:03:05;;;;;;;9.35;2.97;;;23.80;99.30;;;;;;5068286;28;20463;-69
2022/05/18 12:06:09;;;;;;;5.18;2.90;;;24.00;97.50;;;;;;5064786;28;20040;-69
2022/05/18 12:08:42;;;;;;;3.33;3.00;;;24.30;95.00;;;;;;5067756;28;20044;-68
2022/05/18 12:11:50;;;;;;;4.80;2.97;;;24.50;95.80;;;;;;5063196;28;20045;-69
2022/05/18 12:14:38;;;;;;;7.25;2.80;;;24.50;95.40;;;;;;5057999;28;20052;-68
2022/05/18 12:17:20;;;;;;;3.40;2.88;;;24.60;97.00;;;;;;5071884;28;20051;-69
2022/05/18 12:20:10;;;;;;;6.32;3.35;;;24.70;94.80;;;;;;5072325;28;20047;-69
2022/05/18 12:22:45;;;;;;;5.15;3.13;;;24.80;96.90;;;;;;5070433;28;20090;-68
2022/05/18 12:25:15;;;;;;;4.60;2.63;;;24.70;96.00;;;;;;5067755;28;20064;-68
2022/05/18 12:27:42;;;;;;;6.35;3.40;;;24.80;95.40;;;;;;5053666;28;20091;-68
2022/05/18 12:30:13;;;;;;;4.70;2.75;;;24.80;96.80;;;;;;5069397;28;20048;-69
2022/05/18 12:32:40;;;;;;;3.72;2.50;;;24.80;96.10;;;;;;5073649;28;20051;-69
2022/05/18 12:35:32;;;;;;;4.15;3.15;;;25.00;95.60;;;;;;5070523;28;20493;-68
2022/05/18 12:38:05;;;;;;;3.97;2.80;;;25.10;97.40;;;;;;5063836;28;20408;-69
2022/05/18 12:40:32;;;;;;;3.30;2.58;;;25.30;94.60;;;;;;5073939;28;20036;-69
2022/05/18 12:43:36;;;;;;;6.13;2.92;;;25.20;94.50;;;;;;5066683;28;20040;-69
2022/05/18 12:46:11;;;;;;;4.88;2.90;;;25.10;95.30;;;;;;5046068;28;20106;-68
2022/05/18 12:48:42;;;;;;;6.78;3.05;;;25.10;95.00;;;;;;5074468;28;20057;-69
2022/05/18 12:51:27;;;;;;;6.07;2.83;;;25.40;95.60;;;;;;5073982;28;20052;-69
2022/05/18 12:54:09;;;;;;;4.47;2.67;;;25.40;95.90;;;;;;5070321;28;20549;-69
2022/05/18 12:56:36;;;;;;;5.88;2.80;;;25.40;94.90;;;;;;5074425;28;20041;-69
2022/05/18 12:59:34;;;;;;;4.35;2.70;;;25.30;94.70;;;;;;5074535;28;20036;-69
2022/05/18 13:02:15;;;;;;;4.85;3.00;;;25.40;95.50;;;;;;5069703;28;20036;-69
2022/05/18 13:04:46;;;;;;;6.60;3.33;;;25.30;94.80;;;;;;5064473;28;20044;-69
2022/05/18 13:07:27;;;;;;;7.88;3.00;;;25.50;95.80;;;;;;5067675;28;20048;-69
2022/05/18 13:10:09;;;;;;;7.20;3.13;;;25.40;94.90;;;;;;5069000;28;20037;-69
2022/05/18 13:12:40;;;;;;;5.22;3.03;;;25.30;95.10;;;;;;5071228;28;20044;-69
2022/05/18 13:15:36;;;;;;;6.65;3.03;;;25.30;95.10;;;;;;5068891;28;20051;-69
2022/05/18 13:18:11;;;;;;;3.88;2.85;;;25.30;97.30;;;;;;5045343;28;20122;-69
2022/05/18 13:21:13;;;;;;;5.57;2.80;;;25.20;96.10;;;;;;5065141;28;20099;-68
2022/05/18 13:24:01;;;;;;;7.38;3.35;;;25.00;95.00;;;;;;5010590;28;20121;-69
2022/05/18 13:26:39;;;;;;;;;;;25.00;95.70;;;;;;5068450;28;20059;-68
2022/05/18 13:29:28;;;;;;;5.18;2.97;;;24.80;95.40;;;;;;5062448;28;19951;-69
2022/05/18 13:32:01;;;;;;;5.70;3.20;;;24.80;95.40;;;;;;5073146;28;20028;-69
2022/05/18 13:34:55;;;;;;;4.50;3.20;;;24.80;96.20;;;;;;5069814;28;20044;-69
2022/05/18 13:37:21;;;;;;;4.20;3.00;;;24.80;95.30;;;;;;5065955;28;20500;-69